Saint-Bruno-De-Montarville, Canada
Current Conditions -  °F | °C
As of 6:00 AM on Monday 20 Oct 2014 (Local Time) from CYHU Reporting Station
Overcast Overcast  
Wind Chill: 34°   Ceiling: 4100
Heat Index: 37°   Visibility: 9mi
Dew Point: 25°   Wind: 5mph
Humidity: 60%   Direction: 260°W
Pressure: 29.98"   Gusts: NA
Location:  45.53°N, 73.35°W
Report Text: CYHU 201000Z AUTO 26004KT 9SM OVC041 03/M04 A2998 RMK SLP154
Loading
Personal Weather Stations






























Interactive Weather Map
Tropical Storm Tracking
New forecast layout! Learn more

10-Day Weather Forecast

Advertisements
Track Severe Weather on mobile